sensor_id;sensor_type;location;lat;lon;timestamp;pressure;altitude;pressure_sealevel;temperature;humidity
2875;BME280;1445;52.600;13.328;2023-02-19T00:01:13;100865.44;;;4.95;100.00
2875;BME280;1445;52.600;13.328;2023-02-19T00:03:40;100869.63;;;5.02;100.00
2875;BME280;1445;52.600;13.328;2023-02-19T00:06:09;100863.88;;;5.04;100.00
2875;BME280;1445;52.600;13.328;2023-02-19T00:08:36;100867.44;;;5.05;100.00
2875;BME280;1445;52.600;13.328;2023-02-19T00:11:04;100863.28;;;4.97;100.00
2875;BME280;1445;52.600;13.328;2023-02-19T00:13:30;100858.88;;;4.91;100.00
2875;BME280;1445;52.600;13.328;2023-02-19T00:15:56;100861.13;;;4.99;100.00
2875;BME280;1445;52.600;13.328;2023-02-19T00:18:22;100864.41;;;5.01;100.00
2875;BME280;1445;52.600;13.328;2023-02-19T00:20:48;100855.66;;;4.99;100.00
2875;BME280;1445;52.600;13.328;2023-02-19T00:23:14;100859.47;;;4.98;100.00
2875;BME280;1445;52.600;13.328;2023-02-19T00:25:39;100866.28;;;4.95;100.00
2875;BME280;1445;52.600;13.328;2023-02-19T00:28:05;100860.56;;;4.97;100.00
2875;BME280;1445;52.600;13.328;2023-02-19T00:30:30;100857.34;;;5.05;100.00
2875;BME280;1445;52.600;13.328;2023-02-19T00:32:55;100852.66;;;5.00;100.00
2875;BME280;1445;52.600;13.328;2023-02-19T00:35:21;100844.81;;;5.09;100.00
2875;BME280;1445;52.600;13.328;2023-02-19T00:37:46;100837.91;;;5.01;100.00
2875;BME280;1445;52.600;13.328;2023-02-19T00:40:12;100826.69;;;4.98;100.00
2875;BME280;1445;52.600;13.328;2023-02-19T00:42:37;100825.63;;;4.99;100.00
2875;BME280;1445;52.600;13.328;2023-02-19T00:45:03;100831.91;;;4.99;100.00
2875;BME280;1445;52.600;13.328;2023-02-19T00:47:28;100829.75;;;5.07;100.00
2875;BME280;1445;52.600;13.328;2023-02-19T00:49:54;100831.16;;;5.09;100.00
2875;BME280;1445;52.600;13.328;2023-02-19T00:52:19;100831.63;;;5.01;100.00
2875;BME280;1445;52.600;13.328;2023-02-19T00:54:44;100832.78;;;5.10;100.00
2875;BME280;1445;52.600;13.328;2023-02-19T00:57:10;100824.84;;;5.09;100.00
2875;BME280;1445;52.600;13.328;2023-02-19T00:59:35;100822.66;;;5.06;100.00
2875;BME280;1445;52.600;13.328;2023-02-19T01:02:01;100822.38;;;5.02;100.00
2875;BME280;1445;52.600;13.328;2023-02-19T01:04:27;100820.41;;;4.97;100.00
2875;BME280;1445;52.600;13.328;2023-02-19T01:06:52;100814.94;;;4.97;100.00
2875;BME280;1445;52.600;13.328;2023-02-19T01:09:19;100819.94;;;5.06;100.00
2875;BME280;1445;52.600;13.328;2023-02-19T01:11:44;100811.97;;;4.99;100.00
2875;BME280;1445;52.600;13.328;2023-02-19T01:14:09;100804.00;;;4.97;100.00
2875;BME280;1445;52.600;13.328;2023-02-19T01:16:35;100809.47;;;4.97;100.00
2875;BME280;1445;52.600;13.328;2023-02-19T01:19:02;100811.69;;;5.00;100.00
2875;BME280;1445;52.600;13.328;2023-02-19T01:21:28;100799.34;;;4.93;100.00
2875;BME280;1445;52.600;13.328;2023-02-19T01:23:55;100796.59;;;4.93;100.00
2875;BME280;1445;52.600;13.328;2023-02-19T01:26:23;100802.03;;;4.88;100.00
2875;BME280;1445;52.600;13.328;2023-02-19T01:28:49;100793.00;;;4.87;100.00
2875;BME280;1445;52.600;13.328;2023-02-19T01:31:18;100787.78;;;4.81;100.00
2875;BME280;1445;52.600;13.328;2023-02-19T01:33:49;100779.25;;;4.72;100.00
2875;BME280;1445;52.600;13.328;2023-02-19T01:36:15;100768.91;;;4.74;100.00
2875;BME280;1445;52.600;13.328;2023-02-19T01:38:41;100770.03;;;4.83;100.00
2875;BME280;1445;52.600;13.328;2023-02-19T01:41:10;100773.94;;;4.92;100.00
2875;BME280;1445;52.600;13.328;2023-02-19T01:46:28;100775.84;;;4.92;100.00
2875;BME280;1445;52.600;13.328;2023-02-19T01:48:57;100776.09;;;4.90;100.00
2875;BME280;1445;52.600;13.328;2023-02-19T01:51:25;100768.94;;;4.79;100.00
2875;BME280;1445;52.600;13.328;2023-02-19T01:53:56;100768.63;;;4.75;100.00
2875;BME280;1445;52.600;13.328;2023-02-19T01:56:25;100763.69;;;4.72;100.00
2875;BME280;1445;52.600;13.328;2023-02-19T01:58:52;100766.41;;;4.67;100.00
2875;BME280;1445;52.600;13.328;2023-02-19T02:01:18;100750.03;;;4.72;100.00
2875;BME280;1445;52.600;13.328;2023-02-19T02:03:46;100743.69;;;4.67;100.00
2875;BME280;1445;52.600;13.328;2023-02-19T02:06:21;100738.56;;;4.70;100.00
2875;BME280;1445;52.600;13.328;2023-02-19T02:08:50;100730.03;;;4.62;100.00
2875;BME280;1445;52.600;13.328;2023-02-19T02:11:57;100736.91;;;4.69;100.00
2875;BME280;1445;52.600;13.328;2023-02-19T02:14:26;100739.63;;;4.69;100.00
2875;BME280;1445;52.600;13.328;2023-02-19T02:22:30;100742.38;;;4.69;100.00
2875;BME280;1445;52.600;13.328;2023-02-19T02:36:06;100744.38;;;4.47;100.00
2875;BME280;1445;52.600;13.328;2023-02-19T02:38:36;100749.06;;;4.51;100.00
2875;BME280;1445;52.600;13.328;2023-02-19T02:41:05;100737.59;;;4.49;100.00
2875;BME280;1445;52.600;13.328;2023-02-19T02:43:34;100734.06;;;4.54;100.00
2875;BME280;1445;52.600;13.328;2023-02-19T02:45:59;100735.69;;;4.50;100.00
2875;BME280;1445;52.600;13.328;2023-02-19T02:48:49;100739.47;;;4.49;100.00
2875;BME280;1445;52.600;13.328;2023-02-19T02:51:41;100744.34;;;4.42;100.00
2875;BME280;1445;52.600;13.328;2023-02-19T02:54:15;100749.03;;;4.46;100.00
2875;BME280;1445;52.600;13.328;2023-02-19T02:57:02;100752.22;;;4.38;100.00
2875;BME280;1445;52.600;13.328;2023-02-19T02:59:32;100752.53;;;4.42;100.00
2875;BME280;1445;52.600;13.328;2023-02-19T03:07:32;100760.69;;;4.37;100.00
2875;BME280;1445;52.600;13.328;2023-02-19T03:10:02;100759.03;;;4.36;100.00
2875;BME280;1445;52.600;13.328;2023-02-19T03:12:33;100765.84;;;4.33;100.00
2875;BME280;1445;52.600;13.328;2023-02-19T03:15:20;100779.41;;;4.28;100.00
2875;BME280;1445;52.600;13.328;2023-02-19T03:18:10;100781.81;;;4.19;100.00
2875;BME280;1445;52.600;13.328;2023-02-19T03:20:57;100779.66;;;4.21;100.00
2875;BME280;1445;52.600;13.328;2023-02-19T03:23:26;100777.88;;;4.10;100.00
2875;BME280;1445;52.600;13.328;2023-02-19T03:26:13;100784.69;;;4.07;100.00
2875;BME280;1445;52.600;13.328;2023-02-19T03:28:41;100789.22;;;3.97;100.00
2875;BME280;1445;52.600;13.328;2023-02-19T03:31:31;100801.88;;;3.59;100.00
2875;BME280;1445;52.600;13.328;2023-02-19T03:34:00;100788.66;;;3.51;100.00
2875;BME280;1445;52.600;13.328;2023-02-19T03:36:37;100788.44;;;3.30;100.00
2875;BME280;1445;52.600;13.328;2023-02-19T03:39:07;100795.38;;;3.21;100.00
2875;BME280;1445;52.600;13.328;2023-02-19T03:41:40;100798.59;;;3.18;100.00
2875;BME280;1445;52.600;13.328;2023-02-19T03:47:13;100802.47;;;3.22;100.00
2875;BME280;1445;52.600;13.328;2023-02-19T03:49:57;100811.03;;;3.09;100.00
2875;BME280;1445;52.600;13.328;2023-02-19T03:52:37;100799.59;;;3.12;100.00
2875;BME280;1445;52.600;13.328;2023-02-19T03:57:46;100810.00;;;3.15;100.00
2875;BME280;1445;52.600;13.328;2023-02-19T04:00:30;100817.34;;;3.15;100.00
2875;BME280;1445;52.600;13.328;2023-02-19T04:03:22;100814.28;;;3.28;100.00
2875;BME280;1445;52.600;13.328;2023-02-19T04:05:54;100816.19;;;3.27;100.00
2875;BME280;1445;52.600;13.328;2023-02-19T04:08:22;100821.22;;;3.19;100.00
2875;BME280;1445;52.600;13.328;2023-02-19T04:10:49;100825.03;;;3.18;100.00
2875;BME280;1445;52.600;13.328;2023-02-19T04:13:22;100825.19;;;3.11;100.00
2875;BME280;1445;52.600;13.328;2023-02-19T04:15:50;100824.53;;;3.21;100.00
2875;BME280;1445;52.600;13.328;2023-02-19T04:18:23;100837.72;;;3.29;100.00
2875;BME280;1445;52.600;13.328;2023-02-19T04:20:50;100831.63;;;3.22;100.00
2875;BME280;1445;52.600;13.328;2023-02-19T04:23:19;100838.31;;;3.14;100.00
2875;BME280;1445;52.600;13.328;2023-02-19T04:25:49;100833.31;;;3.06;100.00
2875;BME280;1445;52.600;13.328;2023-02-19T04:28:17;100839.97;;;2.98;100.00
2875;BME280;1445;52.600;13.328;2023-02-19T04:30:43;100836.19;;;2.99;100.00
2875;BME280;1445;52.600;13.328;2023-02-19T04:33:08;100847.31;;;2.98;100.00
2875;BME280;1445;52.600;13.328;2023-02-19T04:35:34;100854.34;;;2.94;100.00
2875;BME280;1445;52.600;13.328;2023-02-19T04:38:00;100846.50;;;2.80;100.00
2875;BME280;1445;52.600;13.328;2023-02-19T04:40:25;100862.16;;;2.73;100.00
2875;BME280;1445;52.600;13.328;2023-02-19T04:42:50;100852.78;;;2.81;100.00
2875;BME280;1445;52.600;13.328;2023-02-19T04:45:17;100854.44;;;2.82;100.00
2875;BME280;1445;52.600;13.328;2023-02-19T04:47:42;100858.78;;;2.83;100.00
2875;BME280;1445;52.600;13.328;2023-02-19T04:50:08;100857.97;;;2.82;100.00
2875;BME280;1445;52.600;13.328;2023-02-19T04:52:33;100862.66;;;2.70;100.00
2875;BME280;1445;52.600;13.328;2023-02-19T04:54:59;100866.31;;;2.76;100.00
2875;BME280;1445;52.600;13.328;2023-02-19T04:57:25;100866.63;;;2.79;100.00
2875;BME280;1445;52.600;13.328;2023-02-19T04:59:50;100868.22;;;2.75;100.00
2875;BME280;1445;52.600;13.328;2023-02-19T05:02:15;100865.00;;;2.78;100.00
2875;BME280;1445;52.600;13.328;2023-02-19T05:04:43;100864.72;;;2.63;100.00
2875;BME280;1445;52.600;13.328;2023-02-19T05:07:09;100870.75;;;2.65;100.00
2875;BME280;1445;52.600;13.328;2023-02-19T05:09:34;100878.31;;;2.63;100.00
2875;BME280;1445;52.600;13.328;2023-02-19T05:12:00;100875.56;;;2.75;100.00
2875;BME280;1445;52.600;13.328;2023-02-19T05:14:25;100884.38;;;2.65;100.00
2875;BME280;1445;52.600;13.328;2023-02-19T05:16:51;100878.09;;;2.65;100.00
2875;BME280;1445;52.600;13.328;2023-02-19T05:19:16;100871.84;;;2.64;100.00
2875;BME280;1445;52.600;13.328;2023-02-19T05:21:41;100866.13;;;2.66;100.00
2875;BME280;1445;52.600;13.328;2023-02-19T05:24:07;100865.63;;;2.69;100.00
2875;BME280;1445;52.600;13.328;2023-02-19T05:26:33;100864.81;;;2.68;100.00
2875;BME280;1445;52.600;13.328;2023-02-19T05:28:59;100869.63;;;2.78;100.00
2875;BME280;1445;52.600;13.328;2023-02-19T05:31:24;100867.13;;;2.76;100.00
2875;BME280;1445;52.600;13.328;2023-02-19T05:33:50;100876.22;;;2.82;100.00
2875;BME280;1445;52.600;13.328;2023-02-19T05:36:18;100875.94;;;2.67;100.00
2875;BME280;1445;52.600;13.328;2023-02-19T05:38:44;100880.88;;;2.70;100.00
2875;BME280;1445;52.600;13.328;2023-02-19T05:41:12;100883.13;;;2.73;100.00
2875;BME280;1445;52.600;13.328;2023-02-19T05:43:39;100881.31;;;2.78;100.00
2875;BME280;1445;52.600;13.328;2023-02-19T05:46:05;100876.38;;;2.75;100.00
2875;BME280;1445;52.600;13.328;2023-02-19T05:48:31;100873.72;;;2.63;100.00
2875;BME280;1445;52.600;13.328;2023-02-19T05:51:02;100881.56;;;2.60;100.00
2875;BME280;1445;52.600;13.328;2023-02-19T05:53:28;100885.94;;;2.61;100.00
2875;BME280;1445;52.600;13.328;2023-02-19T05:55:53;100881.94;;;2.52;100.00
2875;BME280;1445;52.600;13.328;2023-02-19T05:58:18;100879.63;;;2.44;100.00
2875;BME280;1445;52.600;13.328;2023-02-19T06:00:44;100884.88;;;2.33;100.00
2875;BME280;1445;52.600;13.328;2023-02-19T06:03:09;100872.69;;;2.36;100.00
2875;BME280;1445;52.600;13.328;2023-02-19T06:05:36;100877.84;;;2.49;100.00
2875;BME280;1445;52.600;13.328;2023-02-19T06:08:02;100872.63;;;2.48;100.00
2875;BME280;1445;52.600;13.328;2023-02-19T06:10:28;100874.19;;;2.44;100.00
2875;BME280;1445;52.600;13.328;2023-02-19T06:12:53;100878.81;;;2.43;100.00
2875;BME280;1445;52.600;13.328;2023-02-19T06:15:20;100869.91;;;2.48;100.00
2875;BME280;1445;52.600;13.328;2023-02-19T06:17:46;100871.63;;;2.37;100.00
2875;BME280;1445;52.600;13.328;2023-02-19T06:20:12;100875.63;;;2.34;100.00
2875;BME280;1445;52.600;13.328;2023-02-19T06:22:37;100879.25;;;2.23;100.00
2875;BME280;1445;52.600;13.328;2023-02-19T06:25:03;100888.69;;;2.32;100.00
2875;BME280;1445;52.600;13.328;2023-02-19T06:27:29;100899.16;;;2.41;100.00
2875;BME280;1445;52.600;13.328;2023-02-19T06:29:54;100899.00;;;2.47;100.00
2875;BME280;1445;52.600;13.328;2023-02-19T06:32:19;100911.19;;;2.45;100.00
2875;BME280;1445;52.600;13.328;2023-02-19T06:34:45;100924.72;;;2.39;100.00
2875;BME280;1445;52.600;13.328;2023-02-19T06:37:10;100918.19;;;2.41;100.00
2875;BME280;1445;52.600;13.328;2023-02-19T06:39:36;100930.72;;;2.42;100.00
2875;BME280;1445;52.600;13.328;2023-02-19T06:42:02;100929.34;;;2.27;100.00
2875;BME280;1445;52.600;13.328;2023-02-19T06:44:27;100934.56;;;2.29;100.00
2875;BME280;1445;52.600;13.328;2023-02-19T06:46:56;100937.53;;;2.27;100.00
2875;BME280;1445;52.600;13.328;2023-02-19T06:49:21;100941.75;;;2.35;100.00
2875;BME280;1445;52.600;13.328;2023-02-19T06:51:47;100942.00;;;2.33;100.00
2875;BME280;1445;52.600;13.328;2023-02-19T06:54:12;100952.34;;;2.20;100.00
2875;BME280;1445;52.600;13.328;2023-02-19T06:56:38;100958.25;;;2.28;100.00
2875;BME280;1445;52.600;13.328;2023-02-19T06:59:10;100957.16;;;2.18;100.00
2875;BME280;1445;52.600;13.328;2023-02-19T07:01:38;100961.78;;;2.29;100.00
2875;BME280;1445;52.600;13.328;2023-02-19T07:04:05;100968.38;;;2.33;100.00
2875;BME280;1445;52.600;13.328;2023-02-19T07:06:32;100963.00;;;2.21;100.00
2875;BME280;1445;52.600;13.328;2023-02-19T07:08:58;100963.00;;;2.21;100.00
2875;BME280;1445;52.600;13.328;2023-02-19T07:11:24;100965.94;;;2.20;100.00
2875;BME280;1445;52.600;13.328;2023-02-19T07:14:14;100984.97;;;2.20;100.00
2875;BME280;1445;52.600;13.328;2023-02-19T07:16:43;100983.91;;;2.21;100.00
2875;BME280;1445;52.600;13.328;2023-02-19T07:19:09;100994.66;;;2.27;100.00
2875;BME280;1445;52.600;13.328;2023-02-19T07:21:35;100998.31;;;2.33;100.00
2875;BME280;1445;52.600;13.328;2023-02-19T07:24:02;101009.53;;;2.36;100.00
2875;BME280;1445;52.600;13.328;2023-02-19T07:26:28;101003.69;;;2.56;100.00
2875;BME280;1445;52.600;13.328;2023-02-19T07:28:54;101001.53;;;2.58;100.00
2875;BME280;1445;52.600;13.328;2023-02-19T07:31:22;101007.81;;;2.59;100.00
2875;BME280;1445;52.600;13.328;2023-02-19T07:33:48;101007.47;;;2.55;100.00
2875;BME280;1445;52.600;13.328;2023-02-19T07:36:14;101024.81;;;2.66;100.00
2875;BME280;1445;52.600;13.328;2023-02-19T07:38:44;101017.19;;;2.51;100.00
2875;BME280;1445;52.600;13.328;2023-02-19T07:41:10;101017.53;;;2.55;100.00
2875;BME280;1445;52.600;13.328;2023-02-19T07:43:37;101019.91;;;2.51;100.00
2875;BME280;1445;52.600;13.328;2023-02-19T07:46:07;101032.69;;;2.51;100.00
2875;BME280;1445;52.600;13.328;2023-02-19T07:48:34;101037.75;;;2.59;100.00
2875;BME280;1445;52.600;13.328;2023-02-19T07:51:00;101034.31;;;2.52;100.00
2875;BME280;1445;52.600;13.328;2023-02-19T07:53:26;101046.88;;;2.53;100.00
2875;BME280;1445;52.600;13.328;2023-02-19T07:55:52;101045.41;;;2.62;100.00
2875;BME280;1445;52.600;13.328;2023-02-19T07:58:18;101058.81;;;2.63;100.00
2875;BME280;1445;52.600;13.328;2023-02-19T08:00:43;101055.56;;;2.67;100.00
2875;BME280;1445;52.600;13.328;2023-02-19T08:03:09;101068.22;;;2.73;100.00
2875;BME280;1445;52.600;13.328;2023-02-19T08:05:37;101075.19;;;2.80;100.00
2875;BME280;1445;52.600;13.328;2023-02-19T08:08:08;101061.44;;;2.87;100.00
2875;BME280;1445;52.600;13.328;2023-02-19T08:10:34;101071.84;;;2.90;100.00
2875;BME280;1445;52.600;13.328;2023-02-19T08:13:18;101080.84;;;2.91;100.00
2875;BME280;1445;52.600;13.328;2023-02-19T08:18:31;101087.63;;;3.05;100.00
2875;BME280;1445;52.600;13.328;2023-02-19T08:20:57;101080.22;;;3.00;100.00
2875;BME280;1445;52.600;13.328;2023-02-19T08:23:23;101099.81;;;3.14;100.00
2875;BME280;1445;52.600;13.328;2023-02-19T08:25:50;101103.56;;;3.25;100.00
2875;BME280;1445;52.600;13.328;2023-02-19T08:28:16;101101.84;;;3.35;100.00
2875;BME280;1445;52.600;13.328;2023-02-19T08:30:43;101104.00;;;3.33;100.00
2875;BME280;1445;52.600;13.328;2023-02-19T08:33:11;101108.53;;;3.28;100.00
2875;BME280;1445;52.600;13.328;2023-02-19T08:35:36;101111.50;;;3.43;100.00
2875;BME280;1445;52.600;13.328;2023-02-19T08:38:03;101111.53;;;3.60;100.00
2875;BME280;1445;52.600;13.328;2023-02-19T08:40:29;101110.47;;;3.61;100.00
2875;BME280;1445;52.600;13.328;2023-02-19T08:42:55;101104.53;;;3.81;100.00
2875;BME280;1445;52.600;13.328;2023-02-19T08:45:20;101102.06;;;3.79;100.00
2875;BME280;1445;52.600;13.328;2023-02-19T08:47:47;101118.09;;;3.76;100.00
2875;BME280;1445;52.600;13.328;2023-02-19T08:50:12;101118.91;;;3.76;100.00
2875;BME280;1445;52.600;13.328;2023-02-19T08:52:38;101108.75;;;3.89;100.00
2875;BME280;1445;52.600;13.328;2023-02-19T08:55:04;101122.31;;;4.00;100.00
2875;BME280;1445;52.600;13.328;2023-02-19T08:57:30;101117.84;;;4.11;100.00
2875;BME280;1445;52.600;13.328;2023-02-19T08:59:55;101109.00;;;4.04;100.00
2875;BME280;1445;52.600;13.328;2023-02-19T09:02:22;101117.09;;;3.99;100.00
2875;BME280;1445;52.600;13.328;2023-02-19T09:04:48;101107.16;;;4.10;100.00
2875;BME280;1445;52.600;13.328;2023-02-19T09:07:14;101108.41;;;4.02;100.00
2875;BME280;1445;52.600;13.328;2023-02-19T09:09:39;101113.88;;;4.19;100.00
2875;BME280;1445;52.600;13.328;2023-02-19T09:12:10;101111.84;;;4.31;100.00
2875;BME280;1445;52.600;13.328;2023-02-19T09:14:36;101104.09;;;4.23;100.00
2875;BME280;1445;52.600;13.328;2023-02-19T09:17:03;101103.44;;;4.16;100.00
2875;BME280;1445;52.600;13.328;2023-02-19T09:19:30;101099.94;;;4.37;100.00
2875;BME280;1445;52.600;13.328;2023-02-19T09:21:55;101114.16;;;4.39;100.00
2875;BME280;1445;52.600;13.328;2023-02-19T09:24:21;101108.00;;;4.49;100.00
2875;BME280;1445;52.600;13.328;2023-02-19T09:26:51;101108.09;;;4.76;100.00
2875;BME280;1445;52.600;13.328;2023-02-19T09:29:17;101106.00;;;4.61;100.00
2875;BME280;1445;52.600;13.328;2023-02-19T09:31:43;101109.41;;;4.73;100.00
2875;BME280;1445;52.600;13.328;2023-02-19T09:34:08;101106.44;;;4.75;100.00
2875;BME280;1445;52.600;13.328;2023-02-19T09:36:36;101115.44;;;4.53;100.00
2875;BME280;1445;52.600;13.328;2023-02-19T09:39:03;101113.66;;;4.42;100.00
2875;BME280;1445;52.600;13.328;2023-02-19T09:41:41;101115.81;;;4.40;100.00
2875;BME280;1445;52.600;13.328;2023-02-19T09:44:11;101109.50;;;4.57;100.00
2875;BME280;1445;52.600;13.328;2023-02-19T09:46:43;101112.28;;;4.84;100.00
2875;BME280;1445;52.600;13.328;2023-02-19T09:49:13;101128.16;;;4.87;100.00
2875;BME280;1445;52.600;13.328;2023-02-19T09:51:43;101117.44;;;5.02;100.00
2875;BME280;1445;52.600;13.328;2023-02-19T09:54:34;101121.66;;;5.15;100.00
2875;BME280;1445;52.600;13.328;2023-02-19T09:57:01;101117.53;;;5.12;100.00
2875;BME280;1445;52.600;13.328;2023-02-19T09:59:38;101123.78;;;5.08;100.00
2875;BME280;1445;52.600;13.328;2023-02-19T10:02:15;101118.53;;;5.28;100.00
2875;BME280;1445;52.600;13.328;2023-02-19T10:04:43;101122.78;;;5.41;100.00
2875;BME280;1445;52.600;13.328;2023-02-19T10:07:15;101121.22;;;5.23;100.00
2875;BME280;1445;52.600;13.328;2023-02-19T10:09:44;101124.66;;;5.13;100.00
2875;BME280;1445;52.600;13.328;2023-02-19T10:12:14;101134.44;;;5.31;100.00
2875;BME280;1445;52.600;13.328;2023-02-19T10:14:46;101132.53;;;5.59;100.00
2875;BME280;1445;52.600;13.328;2023-02-19T10:17:23;101138.22;;;5.84;100.00
2875;BME280;1445;52.600;13.328;2023-02-19T10:19:50;101149.38;;;6.05;100.00
2875;BME280;1445;52.600;13.328;2023-02-19T10:22:17;101150.38;;;6.31;100.00
2875;BME280;1445;52.600;13.328;2023-02-19T10:24:43;101157.97;;;5.91;100.00
2875;BME280;1445;52.600;13.328;2023-02-19T10:27:13;101163.44;;;5.59;100.00
2875;BME280;1445;52.600;13.328;2023-02-19T10:29:42;101164.63;;;5.41;100.00
2875;BME280;1445;52.600;13.328;2023-02-19T10:32:20;101165.63;;;5.35;100.00
2875;BME280;1445;52.600;13.328;2023-02-19T10:37:32;101168.44;;;6.32;100.00
2875;BME280;1445;52.600;13.328;2023-02-19T10:39:59;101167.44;;;6.85;100.00
2875;BME280;1445;52.600;13.328;2023-02-19T10:42:25;101174.31;;;6.93;100.00
2875;BME280;1445;52.600;13.328;2023-02-19T10:44:58;101176.13;;;7.35;100.00
2875;BME280;1445;52.600;13.328;2023-02-19T10:47:27;101165.47;;;6.81;100.00
2875;BME280;1445;52.600;13.328;2023-02-19T10:49:56;101178.81;;;6.25;100.00
2875;BME280;1445;52.600;13.328;2023-02-19T10:52:29;101189.81;;;6.30;100.00
2875;BME280;1445;52.600;13.328;2023-02-19T10:55:14;101184.66;;;6.01;100.00
2875;BME280;1445;52.600;13.328;2023-02-19T10:57:41;101201.94;;;6.07;100.00
2875;BME280;1445;52.600;13.328;2023-02-19T11:02:42;101212.72;;;6.18;100.00
2875;BME280;1445;52.600;13.328;2023-02-19T11:07:35;101217.50;;;6.33;100.00
2875;BME280;1445;52.600;13.328;2023-02-19T11:10:02;101216.94;;;6.68;100.00
2875;BME280;1445;52.600;13.328;2023-02-19T11:12:34;101208.84;;;6.94;100.00
2875;BME280;1445;52.600;13.328;2023-02-19T11:15:12;101216.09;;;6.68;100.00
2875;BME280;1445;52.600;13.328;2023-02-19T11:17:42;101236.81;;;6.54;100.00
2875;BME280;1445;52.600;13.328;2023-02-19T11:20:14;101231.41;;;7.06;100.00
2875;BME280;1445;52.600;13.328;2023-02-19T11:22:44;101244.13;;;6.80;100.00
2875;BME280;1445;52.600;13.328;2023-02-19T11:30:49;101242.19;;;7.23;100.00
2875;BME280;1445;52.600;13.328;2023-02-19T11:36:36;101241.69;;;6.84;100.00
2875;BME280;1445;52.600;13.328;2023-02-19T11:38:39;101252.03;;;6.77;100.00
2875;BME280;1445;52.600;13.328;2023-02-19T11:41:26;101262.16;;;6.71;100.00
2875;BME280;1445;52.600;13.328;2023-02-19T11:54:54;101241.38;;;8.52;100.00
2875;BME280;1445;52.600;13.328;2023-02-19T11:57:45;101244.38;;;8.86;100.00
2875;BME280;1445;52.600;13.328;2023-02-19T12:00:29;101239.44;;;8.22;100.00
2875;BME280;1445;52.600;13.328;2023-02-19T12:06:16;101262.63;;;7.00;100.00
2875;BME280;1445;52.600;13.328;2023-02-19T12:12:00;101283.59;;;6.47;100.00
2875;BME280;1445;52.600;13.328;2023-02-19T12:28:20;101279.09;;;7.63;100.00
2875;BME280;1445;52.600;13.328;2023-02-19T12:45:39;101282.25;;;9.15;100.00
2875;BME280;1445;52.600;13.328;2023-02-19T12:50:55;101310.81;;;8.17;100.00
2875;BME280;1445;52.600;13.328;2023-02-19T12:55:51;101318.09;;;7.17;100.00
2875;BME280;1445;52.600;13.328;2023-02-19T12:58:31;101301.50;;;6.97;100.00
2875;BME280;1445;52.600;13.328;2023-02-19T13:00:59;101305.50;;;6.79;100.00
2875;BME280;1445;52.600;13.328;2023-02-19T13:06:28;101310.78;;;7.33;100.00
2875;BME280;1445;52.600;13.328;2023-02-19T13:09:13;101312.38;;;7.77;100.00
2875;BME280;1445;52.600;13.328;2023-02-19T13:14:41;101307.59;;;9.06;100.00
2875;BME280;1445;52.600;13.328;2023-02-19T13:19:54;101327.66;;;8.56;100.00
2875;BME280;1445;52.600;13.328;2023-02-19T13:22:30;101323.19;;;8.24;100.00
2875;BME280;1445;52.600;13.328;2023-02-19T13:25:17;101326.22;;;8.23;100.00
2875;BME280;1445;52.600;13.328;2023-02-19T13:28:02;101342.16;;;7.48;100.00
2875;BME280;1445;52.600;13.328;2023-02-19T13:30:52;101336.66;;;6.68;100.00
2875;BME280;1445;52.600;13.328;2023-02-19T13:34:31;101339.53;;;6.56;100.00
2875;BME280;1445;52.600;13.328;2023-02-19T13:36:28;101341.97;;;6.53;100.00
2875;BME280;1445;52.600;13.328;2023-02-19T13:38:55;101334.84;;;6.52;100.00
2875;BME280;1445;52.600;13.328;2023-02-19T13:41:36;101339.47;;;6.46;100.00
2875;BME280;1445;52.600;13.328;2023-02-19T13:44:05;101329.53;;;6.67;100.00
2875;BME280;1445;52.600;13.328;2023-02-19T13:46:42;101340.31;;;7.16;100.00
2875;BME280;1445;52.600;13.328;2023-02-19T14:01:10;101339.59;;;9.72;100.00
2875;BME280;1445;52.600;13.328;2023-02-19T14:06:07;101357.63;;;8.98;100.00
2875;BME280;1445;52.600;13.328;2023-02-19T14:16:55;101371.19;;;9.90;100.00
2875;BME280;1445;52.600;13.328;2023-02-19T14:19:45;101359.50;;;10.19;100.00
2875;BME280;1445;52.600;13.328;2023-02-19T14:25:41;101381.81;;;8.76;100.00
2875;BME280;1445;52.600;13.328;2023-02-19T14:28:27;101366.91;;;8.36;100.00
2875;BME280;1445;52.600;13.328;2023-02-19T14:33:48;101377.19;;;10.02;100.00
2875;BME280;1445;52.600;13.328;2023-02-19T14:38:56;101359.16;;;8.07;100.00
2875;BME280;1445;52.600;13.328;2023-02-19T14:41:23;101371.34;;;7.69;100.00
2875;BME280;1445;52.600;13.328;2023-02-19T14:43:51;101379.25;;;7.60;100.00
2875;BME280;1445;52.600;13.328;2023-02-19T14:46:34;101370.88;;;7.87;100.00
2875;BME280;1445;52.600;13.328;2023-02-19T14:49:05;101369.97;;;8.45;100.00
2875;BME280;1445;52.600;13.328;2023-02-19T14:51:41;101390.63;;;8.73;100.00
2875;BME280;1445;52.600;13.328;2023-02-19T14:54:59;101385.63;;;8.44;100.00
2875;BME280;1445;52.600;13.328;2023-02-19T14:57:31;101393.13;;;9.00;100.00
2875;BME280;1445;52.600;13.328;2023-02-19T14:59:57;101383.44;;;9.33;100.00
2875;BME280;1445;52.600;13.328;2023-02-19T15:02:24;101392.81;;;8.91;97.08
2875;BME280;1445;52.600;13.328;2023-02-19T15:04:53;101395.03;;;9.10;93.96
2875;BME280;1445;52.600;13.328;2023-02-19T15:07:25;101406.03;;;8.99;92.10
2875;BME280;1445;52.600;13.328;2023-02-19T15:09:56;101405.72;;;9.37;89.88
2875;BME280;1445;52.600;13.328;2023-02-19T15:12:24;101406.59;;;9.37;84.96
2875;BME280;1445;52.600;13.328;2023-02-19T15:14:53;101413.72;;;9.38;81.91
2875;BME280;1445;52.600;13.328;2023-02-19T15:17:29;101402.47;;;8.89;81.63
2875;BME280;1445;52.600;13.328;2023-02-19T15:19:57;101408.75;;;8.53;90.02
2875;BME280;1445;52.600;13.328;2023-02-19T15:22:24;101410.59;;;8.32;96.67
2875;BME280;1445;52.600;13.328;2023-02-19T15:24:53;101422.44;;;8.38;91.15
2875;BME280;1445;52.600;13.328;2023-02-19T15:27:21;101418.41;;;8.81;87.65
2875;BME280;1445;52.600;13.328;2023-02-19T15:29:49;101417.53;;;8.66;83.33
2875;BME280;1445;52.600;13.328;2023-02-19T15:32:17;101408.22;;;8.82;86.82
2875;BME280;1445;52.600;13.328;2023-02-19T15:34:55;101413.97;;;8.65;84.02